Time;durP1;ratioP1;P1;durP2;ratioP2;P2;SDS_P1;SDS_P2;PMS_P1;PMS_P2;Temp;Humidity;BMP_temperature;BMP_pressure;BME280_temperature;BME280_humidity;BME280_pressure;Samples;Min_cycle;Max_cycle;Signal;HPM_P1;HPM_P2
2023/07/07 00:01:41;;;;;;;2.42;1.02;;;15.10;99.90;;;;;;5009149;28;20025;-72
2023/07/07 00:04:07;;;;;;;2.50;1.45;;;15.10;99.90;;;;;;5008631;28;20582;-73
2023/07/07 00:06:32;;;;;;;8.70;2.17;;;15.10;99.90;;;;;;5026706;28;20124;-73
2023/07/07 00:08:59;;;;;;;3.28;1.30;;;15.00;99.90;;;;;;5027061;28;20052;-72
2023/07/07 00:11:25;;;;;;;2.50;1.10;;;15.00;99.90;;;;;;5008204;28;20033;-72
2023/07/07 00:13:54;;;;;;;5.18;1.00;;;14.90;99.90;;;;;;5009547;28;20594;-70
2023/07/07 00:16:22;;;;;;;4.43;1.23;;;14.90;99.90;;;;;;5025836;28;20107;-71
2023/07/07 00:18:48;;;;;;;5.28;1.42;;;14.80;99.90;;;;;;5022955;28;20035;-71
2023/07/07 00:21:14;;;;;;;2.58;1.02;;;14.80;99.90;;;;;;5008378;28;20136;-73
2023/07/07 00:23:39;;;;;;;4.80;1.60;;;14.80;99.90;;;;;;5026797;28;20029;-72
2023/07/07 00:26:07;;;;;;;3.50;1.40;;;14.80;99.90;;;;;;5026291;28;20120;-71
2023/07/07 00:28:33;;;;;;;3.22;1.55;;;14.70;99.90;;;;;;5024617;28;20116;-71
2023/07/07 00:30:59;;;;;;;5.45;1.40;;;14.70;99.90;;;;;;5008484;28;20466;-72
2023/07/07 00:33:26;;;;;;;4.50;1.60;;;14.70;99.90;;;;;;5017188;28;20121;-72
2023/07/07 00:35:52;;;;;;;2.40;1.58;;;14.70;99.90;;;;;;5009000;28;20076;-71
2023/07/07 00:38:18;;;;;;;3.97;2.03;;;14.70;99.90;;;;;;5025889;28;20069;-73
2023/07/07 00:40:44;;;;;;;4.68;2.38;;;14.60;99.90;;;;;;5026844;28;20037;-72
2023/07/07 00:43:17;;;;;;;3.75;1.80;;;14.60;99.90;;;;;;5007553;28;20539;-70
2023/07/07 00:45:44;;;;;;;6.10;2.38;;;14.60;99.90;;;;;;5009219;28;20103;-72
2023/07/07 00:48:37;;;;;;;3.50;1.80;;;14.60;99.90;;;;;;5008002;28;20048;-72
2023/07/07 00:51:05;;;;;;;4.82;2.15;;;14.60;99.90;;;;;;5007026;28;20492;-72
2023/07/07 00:53:32;;;;;;;5.32;1.80;;;14.60;99.90;;;;;;5025809;28;20095;-72
2023/07/07 00:56:02;;;;;;;6.55;1.70;;;14.50;99.90;;;;;;5008947;28;20041;-73
2023/07/07 00:58:30;;;;;;;5.18;2.40;;;14.50;99.90;;;;;;5025777;28;20051;-71
2023/07/07 01:01:05;;;;;;;4.85;2.03;;;14.50;99.90;;;;;;5009033;28;20091;-71
2023/07/07 01:03:38;;;;;;;5.13;2.63;;;14.50;99.90;;;;;;5021285;28;20033;-71
2023/07/07 01:06:06;;;;;;;7.10;2.97;;;14.60;99.90;;;;;;5029630;28;20407;-72
2023/07/07 01:08:33;;;;;;;9.50;2.13;;;14.50;99.90;;;;;;5011396;28;20036;-71
2023/07/07 01:10:59;;;;;;;9.90;3.10;;;14.50;99.90;;;;;;5012050;28;20044;-73
2023/07/07 01:13:25;;;;;;;5.65;2.60;;;14.50;99.90;;;;;;5010933;28;20033;-72
2023/07/07 01:16:03;;;;;;;10.85;2.83;;;14.50;99.90;;;;;;5012601;28;20125;-72
2023/07/07 01:18:53;;;;;;;6.25;2.55;;;14.50;99.90;;;;;;5011813;28;20037;-72
2023/07/07 01:21:29;;;;;;;6.85;2.58;;;14.50;99.90;;;;;;5010631;28;20446;-72
2023/07/07 01:24:00;;;;;;;11.77;3.30;;;14.50;99.90;;;;;;5029943;28;20061;-72
2023/07/07 01:26:43;;;;;;;4.25;2.53;;;14.50;99.90;;;;;;5011386;28;20041;-73
2023/07/07 01:29:15;;;;;;;8.75;2.92;;;14.50;99.90;;;;;;5010893;28;20047;-72
2023/07/07 01:31:48;;;;;;;6.57;2.63;;;14.50;99.90;;;;;;5029808;28;20033;-71
2023/07/07 01:34:15;;;;;;;5.03;2.58;;;14.50;99.90;;;;;;5011259;28;20049;-71
2023/07/07 01:36:41;;;;;;;4.43;2.13;;;14.40;99.90;;;;;;5028180;28;20041;-72
2023/07/07 01:39:08;;;;;;;4.57;2.40;;;14.40;99.90;;;;;;5011254;28;20044;-71
2023/07/07 01:41:38;;;;;;;5.53;2.80;;;14.40;99.90;;;;;;5028073;28;20081;-73
2023/07/07 01:44:45;;;;;;;7.32;2.92;;;14.40;99.90;;;;;;5028940;28;20527;-72
2023/07/07 01:47:15;;;;;;;9.35;2.72;;;14.30;99.90;;;;;;5006461;28;20140;-72
2023/07/07 01:49:54;;;;;;;11.27;2.95;;;14.30;99.90;;;;;;5029478;28;20029;-71
2023/07/07 01:52:46;;;;;;;8.55;3.30;;;14.20;99.90;;;;;;5010417;28;20029;-71
2023/07/07 01:55:29;;;;;;;5.55;2.90;;;14.20;99.90;;;;;;5028514;28;20064;-71
2023/07/07 01:57:58;;;;;;;7.43;3.50;;;14.20;99.90;;;;;;5022661;28;20037;-73
2023/07/07 02:00:26;;;;;;;4.82;2.65;;;14.20;99.90;;;;;;5010720;28;20480;-70
2023/07/07 02:02:52;;;;;;;9.32;3.30;;;14.20;99.90;;;;;;5011060;28;20064;-70
2023/07/07 02:05:17;;;;;;;10.60;3.30;;;14.20;99.90;;;;;;5028581;28;20555;-70
2023/07/07 02:07:44;;;;;;;9.27;3.72;;;14.20;99.90;;;;;;5029314;28;20079;-71
2023/07/07 02:10:10;;;;;;;9.65;3.67;;;14.20;99.90;;;;;;5022589;28;20044;-72
2023/07/07 02:12:36;;;;;;;7.75;3.20;;;14.30;99.90;;;;;;5028821;28;20036;-71
2023/07/07 02:15:02;;;;;;;8.30;3.25;;;14.30;99.90;;;;;;5028685;28;20034;-71
2023/07/07 02:17:28;;;;;;;11.48;3.50;;;14.30;99.90;;;;;;5026953;28;20034;-71
2023/07/07 02:19:55;;;;;;;7.57;3.50;;;14.40;99.90;;;;;;5028819;28;20037;-72
2023/07/07 02:22:21;;;;;;;8.55;3.33;;;14.40;99.90;;;;;;5027842;28;20036;-71
2023/07/07 02:24:46;;;;;;;8.85;3.47;;;14.40;99.90;;;;;;5028571;28;20025;-70
2023/07/07 02:27:12;;;;;;;7.53;4.47;;;14.40;99.90;;;;;;5027901;28;20041;-71
2023/07/07 02:29:38;;;;;;;7.95;3.63;;;14.40;99.90;;;;;;5011413;28;20022;-70
2023/07/07 02:32:05;;;;;;;11.32;3.85;;;14.40;99.90;;;;;;5010557;28;20042;-72
2023/07/07 02:34:30;;;;;;;6.05;3.47;;;14.40;99.90;;;;;;5027813;28;20040;-70
2023/07/07 02:36:56;;;;;;;6.30;2.85;;;14.40;99.90;;;;;;5028482;28;20416;-71
2023/07/07 02:39:21;;;;;;;5.10;2.92;;;14.40;99.90;;;;;;5027831;28;20045;-71
2023/07/07 02:41:47;;;;;;;7.65;3.38;;;14.40;99.90;;;;;;5011143;28;20043;-70
2023/07/07 02:44:13;;;;;;;8.02;4.03;;;14.40;99.90;;;;;;5010327;28;20069;-71
2023/07/07 02:46:39;;;;;;;9.23;3.42;;;14.40;99.90;;;;;;5028901;28;20033;-71
2023/07/07 02:49:05;;;;;;;8.93;3.70;;;14.40;99.90;;;;;;5028000;28;20033;-71
2023/07/07 02:51:30;;;;;;;7.65;3.15;;;14.30;99.90;;;;;;5010225;28;20021;-70
2023/07/07 02:53:57;;;;;;;6.72;3.83;;;14.30;99.90;;;;;;5010360;28;20491;-71
2023/07/07 02:56:22;;;;;;;6.97;3.40;;;14.30;99.90;;;;;;5027183;28;20110;-70
2023/07/07 02:58:48;;;;;;;7.55;3.40;;;14.30;99.90;;;;;;5027857;28;20057;-72
2023/07/07 03:01:17;;;;;;;6.93;3.50;;;14.30;99.90;;;;;;5027242;28;20202;-70
2023/07/07 03:03:45;;;;;;;11.32;3.58;;;14.30;99.90;;;;;;5027813;28;20044;-71
2023/07/07 03:06:15;;;;;;;12.30;4.28;;;14.30;99.90;;;;;;5027076;28;20172;-70
2023/07/07 03:08:41;;;;;;;7.97;3.90;;;14.40;99.90;;;;;;5028059;28;20076;-71
2023/07/07 03:11:10;;;;;;;11.73;4.05;;;14.40;99.90;;;;;;5005612;28;20415;-71
2023/07/07 03:13:36;;;;;;;8.70;3.75;;;14.40;99.90;;;;;;5027381;28;20033;-72
2023/07/07 03:16:20;;;;;;;9.30;4.72;;;14.40;99.90;;;;;;5027478;28;20049;-72
2023/07/07 03:18:51;;;;;;;9.23;3.40;;;14.50;99.90;;;;;;5024212;28;20196;-72
2023/07/07 03:21:18;;;;;;;8.80;3.90;;;14.40;99.90;;;;;;5027097;28;20037;-69
2023/07/07 03:23:44;;;;;;;7.30;3.72;;;14.40;99.90;;;;;;5009438;28;20037;-72
2023/07/07 03:26:15;;;;;;;9.60;3.53;;;14.40;99.90;;;;;;5008840;28;20041;-72
2023/07/07 03:28:44;;;;;;;7.95;3.90;;;14.30;99.90;;;;;;5002528;28;20033;-71
2023/07/07 03:31:11;;;;;;;9.20;3.03;;;14.40;99.90;;;;;;5026671;28;20167;-71
2023/07/07 03:33:41;;;;;;;9.50;3.80;;;14.40;99.90;;;;;;5027275;28;20044;-71
2023/07/07 03:36:10;;;;;;;7.72;3.45;;;14.40;99.90;;;;;;5009223;28;20499;-71
2023/07/07 03:38:36;;;;;;;7.25;3.40;;;14.40;99.90;;;;;;5001280;28;20503;-71
2023/07/07 03:41:02;;;;;;;9.63;3.20;;;14.40;99.90;;;;;;5027631;28;20037;-70
2023/07/07 03:43:27;;;;;;;6.82;3.67;;;14.40;99.90;;;;;;5008904;28;20519;-71
2023/07/07 03:45:53;;;;;;;9.60;3.20;;;14.40;99.90;;;;;;5027298;28;20040;-71
2023/07/07 03:48:19;;;;;;;6.25;3.15;;;14.40;99.90;;;;;;5026337;28;20048;-71
2023/07/07 03:50:55;;;;;;;8.18;3.67;;;14.40;99.90;;;;;;5009994;28;20048;-70
2023/07/07 03:53:20;;;;;;;8.02;2.97;;;14.40;99.90;;;;;;5026016;28;20045;-70
2023/07/07 03:55:46;;;;;;;6.97;3.55;;;14.40;99.90;;;;;;5027249;28;20507;-71
2023/07/07 03:58:12;;;;;;;6.00;3.35;;;14.50;99.90;;;;;;5026328;28;20042;-70
2023/07/07 04:00:37;;;;;;;9.02;3.53;;;14.50;99.90;;;;;;5009841;28;20033;-70
2023/07/07 04:03:03;;;;;;;8.52;3.58;;;14.60;99.90;;;;;;5027124;28;20041;-73
2023/07/07 04:05:28;;;;;;;6.65;3.67;;;14.60;99.90;;;;;;5037235;28;20545;-73
2023/07/07 04:07:54;;;;;;;6.40;3.50;;;14.60;99.90;;;;;;5047020;28;20033;-70
2023/07/07 04:10:20;;;;;;;7.85;2.95;;;14.60;99.90;;;;;;5028292;28;20128;-71
2023/07/07 04:12:45;;;;;;;9.95;4.20;;;14.60;99.90;;;;;;5029627;28;20059;-70
2023/07/07 04:15:11;;;;;;;8.95;3.22;;;14.60;99.90;;;;;;5045671;28;20037;-69
2023/07/07 04:17:36;;;;;;;6.80;3.28;;;14.60;99.90;;;;;;5047196;28;20510;-69
2023/07/07 04:20:05;;;;;;;7.47;3.15;;;14.60;99.90;;;;;;5047111;28;20037;-70
2023/07/07 04:22:31;;;;;;;7.78;3.33;;;14.50;99.90;;;;;;5045939;28;20503;-71
2023/07/07 04:25:11;;;;;;;6.68;3.60;;;14.60;99.90;;;;;;5028648;28;20017;-71
2023/07/07 04:27:36;;;;;;;14.75;3.55;;;14.60;99.90;;;;;;5038792;28;20112;-71
2023/07/07 04:30:03;;;;;;;9.77;3.63;;;14.60;99.90;;;;;;5046719;28;20116;-71
2023/07/07 04:32:29;;;;;;;5.90;3.17;;;14.60;99.90;;;;;;5046039;28;20041;-73
2023/07/07 04:34:54;;;;;;;6.93;3.38;;;14.60;99.90;;;;;;5046400;28;20427;-71
2023/07/07 04:37:20;;;;;;;9.73;3.25;;;14.60;99.90;;;;;;5047863;28;20045;-70
2023/07/07 04:39:45;;;;;;;6.25;3.08;;;14.70;99.90;;;;;;5050209;28;20434;-71
2023/07/07 04:42:11;;;;;;;7.10;3.58;;;14.70;99.90;;;;;;5031811;28;20052;-71
2023/07/07 04:44:37;;;;;;;10.15;3.30;;;14.70;99.90;;;;;;5032444;28;20052;-71
2023/07/07 04:47:03;;;;;;;6.85;3.38;;;14.80;99.90;;;;;;5032397;28;20577;-71
2023/07/07 04:49:28;;;;;;;7.72;2.97;;;14.90;99.90;;;;;;5049218;28;21138;-72
2023/07/07 04:51:54;;;;;;;10.27;3.95;;;15.00;99.90;;;;;;5050633;28;20438;-71
2023/07/07 04:54:19;;;;;;;6.75;3.83;;;15.00;99.90;;;;;;5049238;28;20074;-71
2023/07/07 04:56:45;;;;;;;9.77;3.53;;;15.00;99.90;;;;;;5050385;28;20029;-70
2023/07/07 04:59:10;;;;;;;5.80;2.85;;;15.10;99.90;;;;;;5042645;28;20041;-71
2023/07/07 05:01:37;;;;;;;5.35;2.90;;;15.10;99.90;;;;;;5050286;28;20036;-72
2023/07/07 05:04:03;;;;;;;4.82;3.03;;;15.10;99.90;;;;;;5049758;28;20442;-71
2023/07/07 05:06:35;;;;;;;10.07;4.03;;;15.20;99.90;;;;;;5049805;28;20105;-71
2023/07/07 05:09:01;;;;;;;16.85;3.10;;;15.20;99.90;;;;;;5050085;28;20029;-69
2023/07/07 05:11:28;;;;;;;7.18;3.35;;;15.20;99.90;;;;;;5030594;28;20606;-71
2023/07/07 05:13:54;;;;;;;9.38;2.80;;;15.20;99.90;;;;;;5031505;28;20040;-72
2023/07/07 05:16:23;;;;;;;5.70;2.72;;;15.30;99.90;;;;;;5030593;28;20521;-72
2023/07/07 05:18:49;;;;;;;6.53;3.17;;;15.30;99.90;;;;;;5031557;28;20441;-70
2023/07/07 05:21:17;;;;;;;8.55;3.38;;;15.30;99.90;;;;;;5030490;28;20061;-72
2023/07/07 05:23:42;;;;;;;5.80;2.80;;;15.40;99.90;;;;;;5049612;28;20029;-70
2023/07/07 05:26:08;;;;;;;7.25;2.70;;;15.40;99.90;;;;;;5031747;28;20380;-70
2023/07/07 05:28:34;;;;;;;5.70;2.97;;;15.50;99.90;;;;;;5031326;28;20037;-71
2023/07/07 05:30:59;;;;;;;6.93;3.25;;;15.50;99.90;;;;;;5031565;28;20036;-71
2023/07/07 05:33:27;;;;;;;7.40;3.05;;;15.70;99.90;;;;;;5048535;28;20029;-70
2023/07/07 05:35:58;;;;;;;9.07;3.75;;;15.80;99.90;;;;;;5049589;28;20033;-71
2023/07/07 05:38:26;;;;;;;6.68;2.70;;;15.90;99.90;;;;;;5030815;28;20037;-71
2023/07/07 05:40:52;;;;;;;6.55;3.08;;;16.00;99.90;;;;;;5031975;28;20041;-71
2023/07/07 05:43:20;;;;;;;5.90;3.00;;;16.20;99.90;;;;;;5050363;28;20498;-70
2023/07/07 05:45:46;;;;;;;5.45;2.38;;;16.30;99.90;;;;;;5032267;28;20491;-71
2023/07/07 05:48:13;;;;;;;5.75;2.30;;;16.60;99.90;;;;;;5048260;28;20059;-70
2023/07/07 05:50:46;;;;;;;5.72;2.58;;;16.90;99.90;;;;;;5049154;28;20033;-70
2023/07/07 05:53:11;;;;;;;5.45;2.28;;;17.30;99.90;;;;;;5047663;28;20523;-70
2023/07/07 05:55:38;;;;;;;6.80;2.13;;;17.80;99.90;;;;;;5049164;28;20060;-72
2023/07/07 05:58:04;;;;;;;8.88;2.55;;;18.40;99.90;;;;;;5039085;28;20422;-71
2023/07/07 06:00:33;;;;;;;7.38;2.47;;;18.90;99.90;;;;;;5037006;28;20071;-71
2023/07/07 06:02:59;;;;;;;4.72;2.25;;;19.50;99.90;;;;;;5049528;28;20025;-71
2023/07/07 06:05:26;;;;;;;7.25;2.85;;;19.80;99.90;;;;;;5047931;28;20048;-70
2023/07/07 06:07:53;;;;;;;5.65;1.90;;;20.10;99.90;;;;;;5049056;28;20407;-70
2023/07/07 06:10:19;;;;;;;5.22;1.85;;;20.20;99.90;;;;;;5047517;28;20033;-69
2023/07/07 06:12:45;;;;;;;4.55;2.10;;;20.30;99.90;;;;;;5048509;28;20033;-70
2023/07/07 06:15:11;;;;;;;3.00;1.80;;;20.40;99.90;;;;;;5029247;28;20124;-71
2023/07/07 06:17:36;;;;;;;5.05;1.65;;;20.60;99.90;;;;;;5029998;28;20029;-71
2023/07/07 06:20:03;;;;;;;5.90;1.70;;;20.60;99.90;;;;;;5015332;28;20043;-72
2023/07/07 06:22:28;;;;;;;4.40;1.83;;;20.60;99.90;;;;;;5045404;28;20686;-72
2023/07/07 06:24:54;;;;;;;5.88;1.90;;;20.70;99.90;;;;;;5045756;28;20162;-71
2023/07/07 06:27:20;;;;;;;6.60;2.20;;;20.70;99.90;;;;;;5046649;28;20036;-71
2023/07/07 06:29:46;;;;;;;5.22;2.10;;;20.60;99.90;;;;;;5047102;28;20033;-74
2023/07/07 06:32:12;;;;;;;4.82;2.42;;;20.80;99.90;;;;;;5028088;28;20040;-71
2023/07/07 06:34:38;;;;;;;5.97;2.05;;;20.70;99.90;;;;;;5047026;28;20029;-71
2023/07/07 06:37:04;;;;;;;3.40;1.63;;;20.80;99.90;;;;;;5043584;28;20038;-71
2023/07/07 06:39:29;;;;;;;4.35;1.60;;;20.80;99.90;;;;;;5025933;28;20037;-70
2023/07/07 06:41:56;;;;;;;5.00;1.48;;;20.90;99.90;;;;;;5040796;28;20028;-72
2023/07/07 06:44:21;;;;;;;5.25;1.80;;;21.10;99.90;;;;;;5027675;28;20033;-71
2023/07/07 06:46:47;;;;;;;6.47;1.73;;;21.40;99.90;;;;;;5045896;28;20033;-70
2023/07/07 06:49:12;;;;;;;6.43;2.05;;;21.70;99.40;;;;;;5046888;28;20033;-72
2023/07/07 06:51:38;;;;;;;5.75;1.77;;;21.90;99.80;;;;;;5049168;28;20040;-72
2023/07/07 06:54:04;;;;;;;7.28;2.00;;;22.30;99.50;;;;;;5047368;28;20033;-69
2023/07/07 06:56:29;;;;;;;4.13;2.15;;;22.70;98.90;;;;;;5040338;28;20091;-70
2023/07/07 06:58:55;;;;;;;2.38;1.50;;;23.20;98.00;;;;;;5046516;28;20033;-72
2023/07/07 07:01:21;;;;;;;4.00;1.58;;;23.40;97.80;;;;;;5045890;28;20444;-73
2023/07/07 07:03:46;;;;;;;4.25;1.52;;;23.50;98.40;;;;;;5028046;28;20039;-72
2023/07/07 07:06:12;;;;;;;4.57;1.88;;;23.60;97.40;;;;;;5045682;28;20064;-71
2023/07/07 07:08:38;;;;;;;5.35;1.95;;;23.60;97.80;;;;;;5028895;28;20068;-72
2023/07/07 07:11:06;;;;;;;4.43;1.63;;;23.80;96.20;;;;;;5046758;28;20039;-71
2023/07/07 07:13:32;;;;;;;5.20;1.90;;;24.30;95.90;;;;;;5028015;28;20039;-72
2023/07/07 07:15:57;;;;;;;3.45;1.30;;;24.70;96.40;;;;;;5029514;28;20056;-72
2023/07/07 07:18:23;;;;;;;3.70;2.08;;;25.20;96.50;;;;;;5046216;28;20025;-71
2023/07/07 07:20:54;;;;;;;4.82;1.92;;;25.90;94.80;;;;;;5038379;28;20774;-70
2023/07/07 07:23:20;;;;;;;5.05;2.15;;;26.70;94.60;;;;;;5046090;28;20036;-72
2023/07/07 07:25:46;;;;;;;10.35;2.45;;;28.00;92.70;;;;;;5044774;28;20033;-71
2023/07/07 07:28:12;;;;;;;5.03;2.35;;;28.90;91.30;;;;;;5027508;28;20048;-71
2023/07/07 07:30:39;;;;;;;3.20;2.38;;;29.80;92.30;;;;;;5029238;28;20121;-71
2023/07/07 07:33:20;;;;;;;6.75;2.63;;;30.10;87.30;;;;;;5026685;28;20075;-73
2023/07/07 07:35:46;;;;;;;5.82;2.83;;;30.70;88.00;;;;;;5044333;28;20044;-71
2023/07/07 07:38:15;;;;;;;5.82;2.25;;;31.60;89.60;;;;;;5044294;28;20037;-71
2023/07/07 07:40:40;;;;;;;6.45;2.70;;;32.20;87.80;;;;;;5048620;28;20044;-71
2023/07/07 07:43:06;;;;;;;6.45;2.85;;;32.80;82.70;;;;;;5062721;28;20037;-75
2023/07/07 07:45:31;;;;;;;4.45;2.53;;;33.10;82.80;;;;;;5057106;28;20071;-71
2023/07/07 07:47:57;;;;;;;6.07;2.85;;;33.60;81.90;;;;;;5043603;28;20048;-73
2023/07/07 07:50:23;;;;;;;7.22;3.20;;;33.80;79.90;;;;;;5048109;28;20518;-72
2023/07/07 07:52:49;;;;;;;5.43;2.17;;;34.00;76.00;;;;;;5040591;28;20040;-74
2023/07/07 07:55:15;;;;;;;12.48;2.58;;;34.60;77.00;;;;;;5024214;28;20041;-74
2023/07/07 07:57:44;;;;;;;5.40;2.22;;;34.70;75.10;;;;;;5045074;28;20483;-73
2023/07/07 08:00:10;;;;;;;;;;;34.70;73.00;;;;;;5042677;28;20669;-74
2023/07/07 08:02:37;;;;;;;5.47;2.35;;;34.50;71.90;;;;;;5047701;28;19913;-74
2023/07/07 08:05:03;;;;;;;6.25;2.20;;;34.40;71.60;;;;;;5046963;28;20040;-72
2023/07/07 08:07:30;;;;;;;4.90;2.58;;;34.30;69.90;;;;;;5045373;28;20032;-73
2023/07/07 08:09:56;;;;;;;4.15;2.17;;;33.90;69.20;;;;;;5047220;28;20029;-73
2023/07/07 08:12:21;;;;;;;6.63;2.40;;;33.20;69.10;;;;;;5049356;28;20056;-71
2023/07/07 08:14:47;;;;;;;5.32;2.13;;;33.00;69.90;;;;;;5049960;28;20029;-74
2023/07/07 08:17:14;;;;;;;3.72;1.70;;;32.80;70.30;;;;;;5031510;28;20029;-74
2023/07/07 08:19:42;;;;;;;4.32;1.83;;;32.50;72.50;;;;;;5034080;28;20495;-74
2023/07/07 08:22:17;;;;;;;4.47;1.80;;;31.90;73.30;;;;;;5050565;28;20087;-74
2023/07/07 08:24:51;;;;;;;4.28;1.50;;;31.30;73.90;;;;;;5032241;28;20091;-73
2023/07/07 08:27:19;;;;;;;7.85;1.45;;;30.60;72.70;;;;;;5048834;28;20234;-73
2023/07/07 08:29:44;;;;;;;4.63;1.20;;;30.00;72.50;;;;;;5032401;28;20037;-74
2023/07/07 08:32:17;;;;;;;3.75;1.25;;;29.50;73.40;;;;;;5032329;28;20511;-75
2023/07/07 08:34:44;;;;;;;4.47;0.95;;;29.20;74.90;;;;;;5050514;28;20196;-72
2023/07/07 08:37:10;;;;;;;3.42;1.38;;;28.90;77.50;;;;;;5054003;28;20033;-72
2023/07/07 08:39:36;;;;;;;1.67;0.63;;;28.60;75.20;;;;;;5054605;28;20355;-72
2023/07/07 08:42:17;;;;;;;4.07;1.20;;;28.50;75.70;;;;;;5051830;28;20122;-74
2023/07/07 08:44:43;;;;;;;2.50;0.88;;;28.30;75.20;;;;;;5032833;28;20044;-74
2023/07/07 08:47:30;;;;;;;8.18;1.27;;;28.10;75.40;;;;;;5048809;28;20040;-72
2023/07/07 08:49:56;;;;;;;1.63;0.65;;;27.70;74.60;;;;;;5044219;28;20552;-73
2023/07/07 08:52:35;;;;;;;2.40;0.88;;;27.60;75.80;;;;;;5049468;28;20037;-73
2023/07/07 08:55:17;;;;;;;3.25;1.15;;;27.50;77.10;;;;;;5050973;28;20033;-72
2023/07/07 08:58:02;;;;;;;4.60;0.82;;;27.50;73.90;;;;;;5030413;28;20045;-72
2023/07/07 09:00:35;;;;;;;2.28;1.08;;;27.40;76.50;;;;;;5046340;28;20029;-72
2023/07/07 09:03:00;;;;;;;3.85;0.73;;;27.30;77.00;;;;;;5031734;28;20399;-73
2023/07/07 09:06:03;;;;;;;5.15;0.70;;;27.20;74.10;;;;;;5048977;28;20029;-74
2023/07/07 09:08:40;;;;;;;2.08;0.70;;;27.40;74.20;;;;;;5042791;28;20511;-72
2023/07/07 09:11:12;;;;;;;2.70;0.60;;;27.30;76.10;;;;;;5048749;28;20767;-72
2023/07/07 09:13:39;;;;;;;2.80;0.68;;;27.40;77.20;;;;;;5031628;28;20041;-72
2023/07/07 09:16:19;;;;;;;2.55;1.08;;;27.50;78.30;;;;;;5031362;28;20064;-74
2023/07/07 09:18:54;;;;;;;4.28;1.15;;;27.50;76.10;;;;;;5031184;28;20064;-73
2023/07/07 09:21:41;;;;;;;2.28;0.70;;;27.70;75.00;;;;;;5026932;28;20067;-74
2023/07/07 09:24:17;;;;;;;2.65;0.80;;;27.70;73.30;;;;;;5030768;28;20503;-75
2023/07/07 09:26:46;;;;;;;2.53;0.63;;;27.70;75.50;;;;;;5031225;28;20399;-73
2023/07/07 09:29:23;;;;;;;1.98;1.10;;;27.80;74.10;;;;;;5049506;28;20500;-73
2023/07/07 09:31:49;;;;;;;2.53;0.57;;;27.70;70.70;;;;;;5035974;28;20033;-73
2023/07/07 09:34:15;;;;;;;2.45;0.73;;;27.70;72.30;;;;;;5053056;28;20036;-72
2023/07/07 09:37:01;;;;;;;0.98;0.77;;;27.70;75.50;;;;;;5049573;28;20037;-74
2023/07/07 09:40:13;;;;;;;1.70;0.57;;;27.70;69.80;;;;;;5028553;28;20095;-72
2023/07/07 09:42:54;;;;;;;3.25;0.93;;;27.70;71.30;;;;;;5029661;28;20120;-73
2023/07/07 09:45:28;;;;;;;1.45;0.55;;;27.80;68.20;;;;;;5029935;28;20037;-73
2023/07/07 09:48:09;;;;;;;0.90;0.50;;;27.90;71.40;;;;;;5048704;28;20029;-74
2023/07/07 09:50:50;;;;;;;1.58;0.60;;;27.60;66.10;;;;;;5048060;28;20036;-71
2023/07/07 09:53:31;;;;;;;2.70;0.82;;;27.70;67.70;;;;;;5026309;28;20056;-72
2023/07/07 09:55:56;;;;;;;2.10;0.90;;;27.80;68.60;;;;;;5028665;28;20518;-73
2023/07/07 09:58:52;;;;;;;3.17;1.08;;;27.90;69.50;;;;;;5047737;28;20116;-74
2023/07/07 10:01:19;;;;;;;3.95;0.70;;;28.00;69.30;;;;;;5033546;28;20033;-73
2023/07/07 10:03:47;;;;;;;6.25;0.95;;;28.10;67.30;;;;;;5027051;28;20104;-74
2023/07/07 10:06:39;;;;;;;1.40;0.65;;;28.10;67.10;;;;;;5047791;28;20032;-72
2023/07/07 10:09:11;;;;;;;1.90;0.60;;;28.10;67.10;;;;;;5024146;28;20116;-72
2023/07/07 10:11:38;;;;;;;2.47;0.80;;;28.20;65.80;;;;;;5043586;28;20036;-71
2023/07/07 10:14:06;;;;;;;2.20;0.70;;;28.10;64.50;;;;;;5048944;28;20082;-71
2023/07/07 10:16:32;;;;;;;1.48;0.52;;;28.10;63.90;;;;;;5048151;28;20506;-72
2023/07/07 10:19:02;;;;;;;1.58;0.47;;;28.10;65.00;;;;;;5048968;28;20127;-71
2023/07/07 10:21:28;;;;;;;3.63;1.15;;;28.20;65.50;;;;;;5029248;28;20037;-71
2023/07/07 10:23:53;;;;;;;2.30;0.65;;;28.10;64.90;;;;;;5031882;28;20036;-72
2023/07/07 10:26:20;;;;;;;1.98;0.70;;;28.00;64.00;;;;;;5041727;28;20450;-71
2023/07/07 10:28:47;;;;;;;5.00;0.80;;;28.10;64.30;;;;;;5034154;28;20036;-72
2023/07/07 10:31:15;;;;;;;2.90;0.73;;;28.10;64.10;;;;;;5039394;28;20030;-71
2023/07/07 10:33:42;;;;;;;1.83;0.90;;;28.20;67.20;;;;;;5044210;28;20101;-71
2023/07/07 10:36:29;;;;;;;2.47;0.60;;;28.30;67.30;;;;;;5042656;28;20033;-71
2023/07/07 10:38:56;;;;;;;2.20;0.60;;;28.30;64.90;;;;;;5041276;28;20060;-72
2023/07/07 10:41:23;;;;;;;2.50;0.70;;;28.30;64.80;;;;;;5028934;28;20375;-71
2023/07/07 10:43:48;;;;;;;1.10;0.65;;;28.30;65.20;;;;;;5047979;28;20037;-73
2023/07/07 10:46:14;;;;;;;1.88;0.90;;;28.40;63.40;;;;;;5046603;28;20040;-71
2023/07/07 10:48:40;;;;;;;2.47;0.60;;;28.30;63.10;;;;;;5047049;28;20448;-72
2023/07/07 10:51:35;;;;;;;1.45;0.88;;;28.10;64.70;;;;;;5038946;28;20506;-70
2023/07/07 10:54:28;;;;;;;1.50;0.93;;;28.10;64.90;;;;;;5020163;28;20452;-73
2023/07/07 10:57:06;;;;;;;1.85;0.77;;;28.30;66.40;;;;;;5042037;28;20055;-72
2023/07/07 10:59:57;;;;;;;1.25;0.70;;;28.30;63.80;;;;;;5047082;28;20120;-72
2023/07/07 11:02:37;;;;;;;1.52;0.75;;;28.40;65.00;;;;;;5034877;28;20483;-70
2023/07/07 11:05:12;;;;;;;;;;;28.40;67.70;;;;;;5039535;28;20040;-71
2023/07/07 11:07:40;;;;;;;1.92;0.52;;;28.60;61.80;;;;;;5025850;28;19919;-72
2023/07/07 11:10:24;;;;;;;1.95;0.90;;;28.60;60.70;;;;;;5027718;28;20037;-72
2023/07/07 11:12:59;;;;;;;3.22;0.80;;;28.40;60.10;;;;;;5027312;28;20112;-72
2023/07/07 11:15:52;;;;;;;3.55;0.90;;;28.40;61.30;;;;;;5045662;28;20526;-72
2023/07/07 11:18:36;;;;;;;1.35;0.60;;;28.40;60.40;;;;;;5032663;28;20037;-72
2023/07/07 11:21:17;;;;;;;2.45;0.80;;;28.20;58.60;;;;;;5049101;28;20029;-71
2023/07/07 11:23:52;;;;;;;2.50;0.75;;;28.20;60.10;;;;;;5016686;28;20485;-72
2023/07/07 11:26:33;;;;;;;1.10;0.57;;;28.20;61.90;;;;;;5045892;28;20037;-71
2023/07/07 11:29:16;;;;;;;1.55;0.60;;;28.10;59.40;;;;;;5047360;28;20032;-71
2023/07/07 11:31:47;;;;;;;2.33;1.05;;;28.10;62.10;;;;;;5023963;28;20152;-72
2023/07/07 11:34:28;;;;;;;1.30;0.63;;;28.20;59.90;;;;;;5021118;28;20025;-73
2023/07/07 11:37:35;;;;;;;2.20;0.85;;;28.30;60.50;;;;;;5046913;28;20432;-72
2023/07/07 11:40:42;;;;;;;2.10;0.70;;;28.20;57.40;;;;;;4975526;28;20572;-71
2023/07/07 11:43:32;;;;;;;2.13;1.00;;;28.20;58.80;;;;;;4940847;28;20078;-72
2023/07/07 11:46:14;;;;;;;2.92;0.93;;;28.00;60.60;;;;;;5036266;28;20755;-72
2023/07/07 11:49:14;;;;;;;3.97;0.98;;;28.10;61.30;;;;;;5026762;28;20057;-71
2023/07/07 11:51:39;;;;;;;;;;;28.10;64.90;;;;;;5034754;28;20040;-71
2023/07/07 11:54:29;;;;;;;2.10;0.98;;;28.20;63.50;;;;;;5030575;28;20425;-71
2023/07/07 11:56:54;;;;;;;1.50;0.70;;;28.20;60.50;;;;;;5044336;28;20044;-71
2023/07/07 11:59:29;;;;;;;2.40;0.80;;;28.10;62.00;;;;;;5048584;28;20044;-72
2023/07/07 12:01:57;;;;;;;2.15;1.02;;;28.20;60.70;;;;;;5044638;28;20036;-71
2023/07/07 12:04:39;;;;;;;2.53;0.70;;;28.30;61.70;;;;;;5026153;28;20029;-73
2023/07/07 12:07:36;;;;;;;3.38;1.20;;;28.40;61.10;;;;;;5027122;28;20072;-71
2023/07/07 12:10:11;;;;;;;1.90;0.98;;;28.30;62.10;;;;;;5027998;28;20139;-70
2023/07/07 12:12:42;;;;;;;3.95;0.70;;;28.20;60.50;;;;;;5048636;28;20083;-72
2023/07/07 12:15:12;;;;;;;2.40;1.23;;;28.10;61.60;;;;;;5026760;28;20040;-71
2023/07/07 12:17:42;;;;;;;3.30;1.25;;;28.10;62.90;;;;;;5027516;28;20041;-71
2023/07/07 12:20:16;;;;;;;2.40;0.73;;;28.20;61.90;;;;;;5024333;28;20165;-71
2023/07/07 12:22:43;;;;;;;4.63;1.15;;;28.20;61.70;;;;;;5045819;28;20033;-71
2023/07/07 12:25:26;;;;;;;5.80;1.10;;;28.20;62.10;;;;;;5045725;28;20112;-71
2023/07/07 12:27:53;;;;;;;2.25;0.70;;;28.10;62.70;;;;;;5043363;28;20029;-70
2023/07/07 12:30:19;;;;;;;1.35;0.98;;;28.00;62.60;;;;;;5045113;28;20059;-71
2023/07/07 12:32:44;;;;;;;4.50;1.17;;;28.00;62.50;;;;;;5045701;28;20440;-72
2023/07/07 12:35:25;;;;;;;1.83;0.90;;;28.00;62.20;;;;;;5045380;28;20036;-72
2023/07/07 12:37:50;;;;;;;2.53;1.15;;;27.90;62.10;;;;;;5045441;28;20025;-72
2023/07/07 12:40:18;;;;;;;2.08;0.82;;;27.80;62.40;;;;;;5044991;28;20041;-72
2023/07/07 12:42:45;;;;;;;3.03;1.27;;;27.90;63.50;;;;;;5046580;28;20425;-72
2023/07/07 12:45:38;;;;;;;1.17;0.60;;;27.90;63.30;;;;;;5027840;28;20029;-72
2023/07/07 12:48:14;;;;;;;1.88;0.70;;;27.90;64.30;;;;;;5025829;28;20056;-71
2023/07/07 12:50:44;;;;;;;3.17;1.13;;;27.90;64.60;;;;;;5034751;28;20395;-72
2023/07/07 12:53:35;;;;;;;1.85;0.90;;;27.80;62.20;;;;;;5046146;28;20356;-71
2023/07/07 12:56:12;;;;;;;1.73;0.60;;;27.80;62.50;;;;;;5020480;28;20140;-71
2023/07/07 12:58:50;;;;;;;1.40;0.75;;;27.80;63.80;;;;;;5050451;28;20110;-71
2023/07/07 13:01:15;;;;;;;4.65;0.98;;;27.90;66.10;;;;;;5033215;28;20041;-70
2023/07/07 13:03:45;;;;;;;3.10;1.20;;;27.90;65.50;;;;;;5054966;28;20040;-71
2023/07/07 13:06:45;;;;;;;1.88;0.80;;;27.90;65.20;;;;;;5036962;28;20179;-71